createdAt,value
2023-08-29T00:01:33.087Z,1.15
2023-08-29T00:03:59.759Z,1.00
2023-08-29T00:06:26.817Z,0.90
2023-08-29T00:08:53.334Z,1.02
2023-08-29T00:11:19.855Z,0.80
2023-08-29T00:13:46.337Z,1.20
2023-08-29T00:16:17.376Z,1.20
2023-08-29T00:18:45.706Z,1.35
2023-08-29T00:21:12.800Z,1.50
2023-08-29T00:23:39.330Z,0.93
2023-08-29T00:26:05.998Z,1.13
2023-08-29T00:28:32.555Z,0.98
2023-08-29T00:30:59.094Z,0.90
2023-08-29T00:33:25.610Z,1.50
2023-08-29T00:35:52.207Z,0.90
2023-08-29T00:38:18.821Z,1.25
2023-08-29T00:40:45.441Z,1.08
2023-08-29T00:43:12.072Z,1.08
2023-08-29T00:45:38.792Z,0.98
2023-08-29T00:48:07.903Z,0.80
2023-08-29T00:50:36.007Z,0.88
2023-08-29T00:53:05.603Z,0.90
2023-08-29T00:55:34.801Z,0.85
2023-08-29T00:58:03.627Z,1.13
2023-08-29T01:00:32.138Z,0.80
2023-08-29T01:03:00.206Z,0.95
2023-08-29T01:05:29.478Z,0.80
2023-08-29T01:08:03.073Z,1.42
2023-08-29T01:10:39.986Z,0.95
2023-08-29T01:13:25.981Z,1.30
2023-08-29T01:15:56.771Z,0.90
2023-08-29T01:18:32.171Z,1.33
2023-08-29T01:21:27.101Z,1.20
2023-08-29T01:24:02.530Z,0.95
2023-08-29T01:26:30.849Z,0.80
2023-08-29T01:28:59.926Z,1.20
2023-08-29T01:31:30.877Z,1.20
2023-08-29T01:34:03.457Z,1.10
2023-08-29T01:36:48.745Z,0.75
2023-08-29T01:39:18.121Z,0.90
2023-08-29T01:45:15.316Z,0.85
2023-08-29T01:47:44.000Z,0.80
2023-08-29T01:50:12.713Z,1.00
2023-08-29T01:52:45.295Z,0.75
2023-08-29T01:55:12.101Z,0.80
2023-08-29T01:57:39.810Z,0.75
2023-08-29T02:00:07.348Z,0.98
2023-08-29T02:02:33.998Z,0.77
2023-08-29T02:05:00.608Z,0.90
2023-08-29T02:07:27.184Z,0.90
2023-08-29T02:09:53.749Z,0.90
2023-08-29T02:12:20.362Z,1.23
2023-08-29T02:14:47.209Z,0.70
2023-08-29T02:17:16.004Z,0.85
2023-08-29T02:19:42.497Z,0.75
2023-08-29T02:22:09.768Z,0.90
2023-08-29T02:24:36.435Z,0.98
2023-08-29T02:27:03.556Z,0.70
2023-08-29T02:29:30.041Z,0.88
2023-08-29T02:31:56.601Z,1.13
2023-08-29T02:34:23.191Z,1.00
2023-08-29T02:36:49.707Z,1.10
2023-08-29T02:39:16.253Z,1.20
2023-08-29T02:41:42.769Z,0.90
2023-08-29T02:44:09.327Z,0.93
2023-08-29T02:46:35.934Z,0.98
2023-08-29T02:49:02.505Z,0.80
2023-08-29T02:51:29.133Z,0.98
2023-08-29T02:53:55.662Z,0.57
2023-08-29T02:56:22.324Z,0.45
2023-08-29T02:58:48.988Z,0.55
2023-08-29T03:01:15.623Z,0.40
2023-08-29T03:03:42.638Z,0.40
2023-08-29T03:06:09.448Z,0.28
2023-08-29T03:08:36.131Z,0.35
2023-08-29T03:11:05.210Z,0.38
2023-08-29T03:17:09.724Z,0.38
2023-08-29T03:19:38.653Z,0.55
2023-08-29T03:24:51.214Z,0.30
2023-08-29T03:27:17.818Z,0.40
2023-08-29T03:29:44.401Z,0.40
2023-08-29T03:32:10.985Z,0.50
2023-08-29T03:34:38.602Z,0.52
2023-08-29T03:37:08.503Z,0.40
2023-08-29T03:39:37.588Z,0.50
2023-08-29T03:42:04.439Z,0.40
2023-08-29T03:44:30.995Z,0.22
2023-08-29T03:46:57.556Z,0.93
2023-08-29T03:49:24.069Z,0.50
2023-08-29T03:51:50.617Z,0.38
2023-08-29T03:54:17.155Z,0.43
2023-08-29T03:56:44.703Z,0.40
2023-08-29T03:59:11.235Z,0.20
2023-08-29T04:01:37.797Z,0.22
2023-08-29T04:04:07.844Z,0.57
2023-08-29T04:06:36.978Z,0.50
2023-08-29T04:09:09.421Z,1.15
2023-08-29T04:11:36.048Z,0.50
2023-08-29T04:14:02.952Z,0.30
2023-08-29T04:16:32.209Z,0.30
2023-08-29T04:19:01.404Z,0.30
2023-08-29T04:21:28.021Z,0.20
2023-08-29T04:23:54.526Z,0.25
2023-08-29T04:26:22.592Z,0.20
2023-08-29T04:28:49.999Z,0.50
2023-08-29T04:31:18.608Z,0.47
2023-08-29T04:33:45.400Z,0.60
2023-08-29T04:36:15.219Z,0.30
2023-08-29T04:38:52.266Z,0.70
2023-08-29T04:41:33.498Z,0.70
2023-08-29T04:44:00.468Z,0.20
2023-08-29T04:46:29.400Z,0.30
2023-08-29T04:48:55.906Z,0.40
2023-08-29T04:51:39.937Z,0.28
2023-08-29T04:54:06.868Z,0.32
2023-08-29T04:56:33.545Z,0.30
2023-08-29T04:59:00.101Z,0.45
2023-08-29T05:01:26.928Z,0.32
2023-08-29T05:03:53.773Z,0.50
2023-08-29T05:06:30.771Z,0.50
2023-08-29T05:08:57.389Z,0.60
2023-08-29T05:11:23.917Z,0.40
2023-08-29T05:13:50.493Z,0.60
2023-08-29T05:16:17.049Z,0.43
2023-08-29T05:18:43.621Z,0.40
2023-08-29T05:21:10.154Z,0.60
2023-08-29T05:23:36.722Z,0.50
2023-08-29T05:26:03.259Z,0.50
2023-08-29T05:28:30.046Z,0.60
2023-08-29T05:30:56.675Z,0.45
2023-08-29T05:33:23.233Z,0.65
2023-08-29T05:35:49.782Z,0.70
2023-08-29T05:38:16.315Z,0.85
2023-08-29T05:40:42.863Z,0.73
2023-08-29T05:43:11.871Z,0.88
2023-08-29T05:45:41.778Z,0.52
2023-08-29T05:48:08.762Z,0.70
2023-08-29T05:50:40.364Z,0.50
2023-08-29T05:54:00.189Z,0.60
2023-08-29T05:56:26.820Z,0.68
2023-08-29T05:59:18.005Z,0.60
2023-08-29T06:01:44.785Z,0.50
2023-08-29T06:04:11.420Z,0.50
2023-08-29T06:06:47.009Z,0.63
2023-08-29T06:09:13.949Z,0.80
2023-08-29T06:11:43.476Z,0.65
2023-08-29T06:17:59.419Z,0.90
2023-08-29T06:20:29.112Z,0.60
2023-08-29T06:22:58.019Z,0.90
2023-08-29T06:26:28.302Z,0.70
2023-08-29T06:28:54.906Z,0.80
2023-08-29T06:31:27.171Z,0.70
2023-08-29T06:33:59.522Z,0.80
2023-08-29T06:36:27.228Z,0.82
2023-08-29T06:38:54.717Z,0.68
2023-08-29T06:41:35.904Z,0.50
2023-08-29T06:44:15.960Z,0.60
2023-08-29T06:49:51.453Z,0.43
2023-08-29T06:52:18.028Z,0.82
2023-08-29T06:54:47.641Z,0.40
2023-08-29T06:57:14.181Z,0.60
2023-08-29T06:59:40.894Z,0.60
2023-08-29T07:02:10.011Z,0.45
2023-08-29T07:04:36.773Z,0.33
2023-08-29T07:07:03.949Z,0.50
2023-08-29T07:09:34.789Z,0.60
2023-08-29T07:12:01.451Z,0.40
2023-08-29T07:14:27.940Z,0.70
2023-08-29T07:17:09.471Z,0.43
2023-08-29T07:19:37.264Z,0.40
2023-08-29T07:23:24.314Z,0.40
2023-08-29T07:26:17.109Z,0.52
2023-08-29T07:28:43.698Z,0.70
2023-08-29T07:35:19.241Z,0.55
2023-08-29T07:38:00.009Z,0.50
2023-08-29T07:41:05.767Z,0.50
2023-08-29T07:43:47.949Z,0.50
2023-08-29T07:47:15.672Z,0.47
2023-08-29T07:49:43.637Z,0.55
2023-08-29T07:52:10.625Z,0.40
2023-08-29T07:54:37.326Z,0.43
2023-08-29T07:57:05.016Z,0.45
2023-08-29T07:59:31.650Z,0.35
2023-08-29T08:01:58.255Z,0.43
2023-08-29T08:04:24.861Z,0.50
2023-08-29T08:06:51.480Z,0.40
2023-08-29T08:09:18.027Z,0.50
2023-08-29T08:11:44.560Z,0.40
2023-08-29T08:14:12.586Z,0.50
2023-08-29T08:16:39.168Z,0.50
2023-08-29T08:19:05.813Z,0.45
2023-08-29T08:21:32.393Z,1.08
2023-08-29T08:23:58.999Z,0.70
2023-08-29T08:26:25.722Z,0.40
2023-08-29T08:28:53.359Z,0.43
2023-08-29T08:31:19.946Z,0.30
2023-08-29T08:33:46.693Z,0.73
2023-08-29T08:36:13.320Z,0.40
2023-08-29T08:38:39.909Z,0.38
2023-08-29T08:41:06.553Z,0.40
2023-08-29T08:43:33.338Z,0.50
2023-08-29T08:46:00.245Z,0.52
2023-08-29T08:48:27.803Z,0.47
2023-08-29T08:50:55.061Z,0.45
2023-08-29T08:53:23.052Z,0.40
2023-08-29T08:55:52.494Z,0.30
2023-08-29T08:58:19.686Z,0.60
2023-08-29T09:00:46.548Z,0.22
2023-08-29T09:03:14.845Z,0.30
2023-08-29T09:05:42.971Z,0.60
2023-08-29T09:08:09.818Z,0.40
2023-08-29T09:10:40.756Z,0.60
2023-08-29T09:13:07.496Z,0.60
2023-08-29T09:15:35.839Z,0.50
2023-08-29T09:18:02.720Z,0.35
2023-08-29T09:20:30.932Z,0.38
2023-08-29T09:22:57.692Z,0.30
2023-08-29T09:25:27.733Z,0.60
2023-08-29T09:27:54.915Z,0.40
2023-08-29T09:30:21.853Z,0.43
2023-08-29T09:32:50.305Z,0.45
2023-08-29T09:35:20.123Z,0.40
2023-08-29T09:37:56.300Z,0.28
2023-08-29T09:43:04.030Z,0.20
2023-08-29T09:45:31.828Z,0.20
2023-08-29T09:48:10.066Z,0.40
2023-08-29T09:50:37.606Z,0.32
2023-08-29T09:53:04.372Z,0.30
2023-08-29T09:55:41.237Z,0.40
2023-08-29T09:58:09.015Z,0.30
2023-08-29T10:00:37.354Z,0.22
2023-08-29T10:03:11.666Z,0.38
2023-08-29T10:09:20.802Z,0.40
2023-08-29T10:15:56.169Z,0.40
2023-08-29T10:18:23.616Z,0.50
2023-08-29T10:20:50.548Z,0.35
2023-08-29T10:27:05.201Z,0.40
2023-08-29T10:29:32.998Z,0.47
2023-08-29T10:35:46.727Z,0.47
2023-08-29T10:38:15.816Z,0.50
2023-08-29T10:44:47.178Z,0.60
2023-08-29T10:52:04.193Z,0.43
2023-08-29T10:54:30.891Z,0.50
2023-08-29T11:01:31.150Z,0.50
2023-08-29T11:04:04.900Z,0.38
2023-08-29T11:10:28.198Z,0.43
2023-08-29T11:13:12.747Z,0.47
2023-08-29T11:23:08.057Z,0.43
2023-08-29T11:29:21.263Z,0.60
2023-08-29T11:31:48.489Z,0.55
2023-08-29T11:38:20.171Z,0.38
2023-08-29T11:40:52.726Z,0.50
2023-08-29T11:47:28.276Z,1.00
2023-08-29T11:49:55.173Z,0.77
2023-08-29T11:56:05.068Z,0.50
2023-08-29T11:58:33.559Z,0.70
2023-08-29T12:05:18.139Z,0.45
2023-08-29T12:15:59.214Z,0.38
2023-08-29T12:18:29.086Z,0.45
2023-08-29T12:21:18.605Z,0.40
2023-08-29T12:31:53.296Z,0.30
2023-08-29T12:38:51.272Z,0.28
2023-08-29T12:41:18.960Z,0.20
2023-08-29T12:43:45.499Z,0.38
2023-08-29T12:46:12.176Z,0.28
2023-08-29T12:48:38.751Z,0.20
2023-08-29T12:54:52.636Z,0.40
2023-08-29T12:57:19.238Z,0.20
2023-08-29T12:59:46.448Z,0.20
2023-08-29T13:02:13.439Z,0.32
2023-08-29T13:04:40.162Z,0.20
2023-08-29T13:07:06.907Z,0.20
2023-08-29T13:09:38.015Z,0.20
2023-08-29T13:19:40.728Z,0.20
2023-08-29T13:22:07.805Z,0.40
2023-08-29T13:24:35.720Z,0.50
2023-08-29T13:27:02.433Z,0.40
2023-08-29T13:29:29.182Z,0.30
2023-08-29T13:31:55.928Z,0.32
2023-08-29T13:34:22.537Z,0.40
2023-08-29T13:36:49.443Z,0.50
2023-08-29T13:39:16.066Z,0.70
2023-08-29T13:45:29.493Z,0.35
2023-08-29T13:47:56.125Z,0.30
2023-08-29T13:50:23.235Z,0.20
2023-08-29T13:52:49.922Z,0.25
2023-08-29T13:55:16.617Z,0.30
2023-08-29T13:57:43.604Z,0.10
2023-08-29T14:00:10.795Z,0.30
2023-08-29T14:02:38.128Z,0.30
2023-08-29T14:05:05.172Z,0.20
2023-08-29T14:07:31.743Z,0.40
2023-08-29T14:09:58.275Z,0.30
2023-08-29T14:16:12.228Z,0.30
2023-08-29T14:18:41.997Z,0.70
2023-08-29T14:21:09.523Z,0.60
2023-08-29T14:23:36.254Z,0.50
2023-08-29T14:26:03.210Z,0.40
2023-08-29T14:28:30.074Z,0.40
2023-08-29T14:30:57.393Z,0.30
2023-08-29T14:33:24.105Z,0.22
2023-08-29T14:35:57.300Z,0.30
2023-08-29T14:42:40.125Z,0.28
2023-08-29T14:45:08.712Z,0.25
2023-08-29T14:47:36.059Z,0.70
2023-08-29T14:50:02.713Z,0.90
2023-08-29T14:52:29.520Z,0.70
2023-08-29T14:54:57.218Z,0.70
2023-08-29T14:57:23.888Z,0.50
2023-08-29T14:59:50.493Z,0.60
2023-08-29T15:02:17.115Z,0.70
2023-08-29T15:04:43.752Z,0.50
2023-08-29T15:07:15.308Z,0.52
2023-08-29T15:09:42.158Z,0.45
2023-08-29T15:12:09.554Z,0.43
2023-08-29T15:18:17.442Z,0.60
2023-08-29T15:20:44.534Z,0.65
2023-08-29T15:23:11.539Z,0.88
2023-08-29T15:32:56.553Z,0.82
2023-08-29T15:35:23.348Z,0.75
2023-08-29T15:42:21.121Z,0.60
2023-08-29T15:44:48.027Z,0.70
2023-08-29T15:47:18.657Z,0.43
2023-08-29T15:49:47.054Z,0.60
2023-08-29T15:56:06.116Z,0.43
2023-08-29T15:58:48.392Z,0.30
2023-08-29T16:01:18.128Z,0.30
2023-08-29T16:07:53.646Z,0.45
2023-08-29T16:10:20.323Z,0.52
2023-08-29T16:12:47.630Z,0.52
2023-08-29T16:15:17.103Z,0.40
2023-08-29T16:21:13.380Z,1.40
2023-08-29T16:23:40.985Z,0.90
2023-08-29T16:26:15.851Z,0.85
2023-08-29T16:28:43.186Z,0.85
2023-08-29T16:31:10.212Z,0.80
2023-08-29T16:33:36.819Z,0.60
2023-08-29T16:36:04.702Z,0.75
2023-08-29T16:38:31.589Z,0.77
2023-08-29T16:40:59.095Z,0.88
2023-08-29T16:47:22.099Z,1.20
2023-08-29T16:49:48.814Z,1.48
2023-08-29T16:52:15.373Z,1.10
2023-08-29T16:54:42.104Z,0.90
2023-08-29T16:57:08.720Z,0.95
2023-08-29T16:59:56.586Z,0.68
2023-08-29T17:06:10.953Z,0.90
2023-08-29T17:08:37.767Z,0.77
2023-08-29T17:11:04.489Z,0.85
2023-08-29T17:13:31.041Z,0.60
2023-08-29T17:15:57.800Z,0.80
2023-08-29T17:25:47.111Z,1.10
2023-08-29T17:28:16.176Z,0.90
2023-08-29T17:30:42.942Z,0.83
2023-08-29T17:33:09.582Z,1.10
2023-08-29T17:35:37.356Z,1.20
2023-08-29T17:38:04.174Z,1.17
2023-08-29T17:47:48.143Z,1.15
2023-08-29T17:50:14.767Z,1.27
2023-08-29T17:52:41.499Z,0.70
2023-08-29T17:55:08.208Z,0.80
2023-08-29T18:01:23.002Z,0.80
2023-08-29T18:03:49.994Z,0.60
2023-08-29T18:06:24.459Z,0.90
2023-08-29T18:09:15.181Z,0.82
2023-08-29T18:15:29.542Z,0.63
2023-08-29T18:17:59.463Z,0.70
2023-08-29T18:22:53.217Z,0.60
2023-08-29T18:25:19.907Z,0.65
2023-08-29T18:27:46.443Z,0.68
2023-08-29T18:30:13.412Z,0.80
2023-08-29T18:32:40.003Z,0.90
2023-08-29T18:35:07.098Z,0.68
2023-08-29T18:37:33.694Z,0.77
2023-08-29T18:40:00.303Z,0.85
2023-08-29T18:42:26.968Z,0.90
2023-08-29T18:44:53.620Z,0.73
2023-08-29T18:47:20.167Z,0.73
2023-08-29T18:49:46.856Z,0.88
2023-08-29T18:52:13.522Z,1.35
2023-08-29T18:54:40.042Z,1.00
2023-08-29T18:57:06.569Z,1.30
2023-08-29T18:59:33.278Z,1.50
2023-08-29T19:02:00.555Z,0.93
2023-08-29T19:04:27.151Z,0.95
2023-08-29T19:06:53.658Z,0.73
2023-08-29T19:09:20.299Z,0.70
2023-08-29T19:11:47.582Z,0.80
2023-08-29T19:14:14.098Z,0.82
2023-08-29T19:16:40.611Z,0.60
2023-08-29T19:19:07.754Z,0.90
2023-08-29T19:21:34.319Z,0.75
2023-08-29T19:24:01.125Z,0.65
2023-08-29T19:26:27.824Z,0.80
2023-08-29T19:28:54.511Z,0.70
2023-08-29T19:31:21.257Z,1.00
2023-08-29T19:33:47.990Z,0.80
2023-08-29T19:36:17.082Z,1.08
2023-08-29T19:38:44.877Z,0.97
2023-08-29T19:41:14.105Z,0.90
2023-08-29T19:43:41.021Z,1.00
2023-08-29T19:46:08.310Z,0.70
2023-08-29T19:48:34.968Z,1.08
2023-08-29T19:51:01.610Z,0.90
2023-08-29T19:53:28.281Z,1.33
2023-08-29T19:55:54.867Z,0.75
2023-08-29T19:58:22.663Z,0.82
2023-08-29T20:00:51.116Z,1.00
2023-08-29T20:03:18.531Z,1.00
2023-08-29T20:05:45.595Z,0.98
2023-08-29T20:08:21.060Z,1.08
2023-08-29T20:10:48.015Z,1.02
2023-08-29T20:13:14.619Z,1.30
2023-08-29T20:15:45.487Z,1.70
2023-08-29T20:18:12.995Z,1.83
2023-08-29T20:20:40.800Z,1.80
2023-08-29T20:23:09.738Z,1.80
2023-08-29T20:25:36.330Z,1.88
2023-08-29T20:28:03.180Z,1.85
2023-08-29T20:30:29.783Z,1.77
2023-08-29T20:32:56.384Z,1.75
2023-08-29T20:35:22.989Z,1.73
2023-08-29T20:37:49.577Z,2.03
2023-08-29T20:40:16.180Z,2.25
2023-08-29T20:42:42.950Z,1.67
2023-08-29T20:45:10.179Z,2.10
2023-08-29T20:47:37.336Z,1.83
2023-08-29T20:50:04.610Z,2.42
2023-08-29T20:52:31.194Z,2.13
2023-08-29T20:54:57.735Z,2.33
2023-08-29T20:57:51.954Z,2.45
2023-08-29T21:00:18.731Z,2.85
2023-08-29T21:02:45.592Z,3.10
2023-08-29T21:05:12.218Z,3.50
2023-08-29T21:07:38.755Z,3.13
2023-08-29T21:10:05.975Z,3.30
2023-08-29T21:12:57.034Z,3.10
2023-08-29T21:15:24.115Z,3.20
2023-08-29T21:17:50.673Z,3.75
2023-08-29T21:20:17.427Z,4.53
2023-08-29T21:22:43.976Z,4.70
2023-08-29T21:25:10.524Z,4.38
2023-08-29T21:27:37.069Z,4.75
2023-08-29T21:30:05.419Z,5.65
2023-08-29T21:32:32.000Z,5.55
2023-08-29T21:34:58.598Z,6.38
2023-08-29T21:37:25.154Z,6.93
2023-08-29T21:39:51.752Z,5.95
2023-08-29T21:42:18.252Z,6.47
2023-08-29T21:44:44.787Z,6.78
2023-08-29T21:47:11.321Z,5.10
2023-08-29T21:49:37.860Z,7.38
2023-08-29T21:52:04.670Z,5.55
2023-08-29T21:54:32.584Z,5.88
2023-08-29T21:56:59.103Z,6.63
2023-08-29T21:59:25.706Z,5.80
2023-08-29T22:01:53.544Z,5.90
2023-08-29T22:15:43.938Z,5.15
2023-08-29T22:18:10.748Z,4.97
2023-08-29T22:20:43.694Z,5.15
2023-08-29T22:23:22.021Z,5.90
2023-08-29T22:25:48.530Z,5.63
2023-08-29T22:28:15.085Z,5.82
2023-08-29T22:30:41.602Z,6.18
2023-08-29T22:33:09.297Z,5.35
2023-08-29T22:35:35.971Z,5.82
2023-08-29T22:38:02.596Z,5.57
2023-08-29T22:40:29.153Z,5.50
2023-08-29T22:42:55.757Z,5.30
2023-08-29T22:45:22.404Z,4.88
2023-08-29T22:47:51.667Z,5.20
2023-08-29T22:50:18.512Z,6.05
2023-08-29T22:52:45.027Z,5.60
2023-08-29T22:55:11.870Z,5.63
2023-08-29T22:57:38.395Z,5.30
2023-08-29T23:00:08.799Z,4.93
2023-08-29T23:02:35.460Z,5.80
2023-08-29T23:05:02.061Z,5.70
2023-08-29T23:07:28.589Z,5.97
2023-08-29T23:09:55.170Z,5.20
2023-08-29T23:12:21.686Z,5.15
2023-08-29T23:14:48.237Z,5.75
2023-08-29T23:17:14.769Z,5.82
2023-08-29T23:19:45.141Z,5.85
2023-08-29T23:22:12.266Z,5.63
2023-08-29T23:24:38.870Z,4.50
2023-08-29T23:27:07.120Z,4.20
2023-08-29T23:29:34.081Z,5.43
2023-08-29T23:32:00.636Z,4.68
2023-08-29T23:34:27.490Z,3.90
2023-08-29T23:36:54.012Z,3.58
2023-08-29T23:39:20.600Z,3.75
2023-08-29T23:41:48.920Z,3.30
2023-08-29T23:44:15.506Z,3.83
2023-08-29T23:46:42.084Z,3.55
2023-08-29T23:49:09.022Z,4.30
2023-08-29T23:51:35.537Z,3.50
2023-08-29T23:54:02.069Z,4.30
2023-08-29T23:56:28.652Z,4.10
2023-08-29T23:58:55.189Z,4.53
